Time;durP1;ratioP1;P1;durP2;ratioP2;P2;SDS_P1;SDS_P2;PMS_P1;PMS_P2;Temp;Humidity;BMP_temperature;BMP_pressure;BME280_temperature;BME280_humidity;BME280_pressure;Samples;Min_cycle;Max_cycle;Signal;HPM_P1;HPM_P2
2021/05/17 10:49:28;;;;;;;9.15;3.22;;;;;;;31.71;27.99;99770.97;5062991;27;20365;-67
2021/05/17 15:00:28;;;;;;;31.20;4.45;;;;;;;37.32;20.17;99472.19;5151166;27;20377;-80
2021/05/17 15:02:54;;;;;;;41.38;4.55;;;;;;;37.96;19.86;99475.63;5132581;27;20042;-75
2021/05/17 15:05:20;;;;;;;38.38;4.55;;;;;;;38.39;19.47;99471.63;5150708;27;20042;-75
2021/05/17 15:07:48;;;;;;;43.45;5.68;;;;;;;39.12;19.27;99469.28;5149770;27;20133;-76
2021/05/17 15:10:15;;;;;;;46.20;4.55;;;;;;;39.85;18.64;99469.53;5125573;27;20410;-77
2021/05/17 15:12:46;;;;;;;25.02;4.20;;;;;;;40.38;17.92;99474.47;5119900;27;20051;-79
2021/05/17 15:15:16;;;;;;;21.02;3.40;;;;;;;40.65;17.21;99479.97;5112915;27;20054;-74
2021/05/17 15:17:42;;;;;;;22.88;3.63;;;;;;;41.02;17.52;99472.31;5113034;28;20402;-76
2021/05/17 15:20:09;;;;;;;26.45;4.65;;;;;;;41.18;17.33;99478.31;5095608;28;20035;-76
2021/05/17 15:22:37;;;;;;;23.70;3.58;;;;;;;40.95;17.42;99469.09;5112189;28;20095;-75
2021/05/17 15:25:03;;;;;;;;;;;;;;;40.70;17.41;99468.66;5131500;27;20107;-75
2021/05/17 15:27:30;;;;;;;29.67;3.80;;;;;;;40.58;17.56;99473.97;5112193;28;20014;-77
2021/05/17 15:29:56;;;;;;;20.52;3.80;;;;;;;40.42;17.56;99473.50;5112674;27;20043;-73
2021/05/17 15:32:27;;;;;;;21.77;4.13;;;;;;;40.20;17.63;99473.50;5095681;28;20513;-74
2021/05/17 15:34:54;;;;;;;25.83;3.30;;;;;;;39.74;17.88;99472.53;5113203;28;20035;-74
2021/05/17 15:37:20;;;;;;;23.85;3.65;;;;;;;39.33;17.89;99476.16;5128986;27;20035;-74
2021/05/17 15:39:47;;;;;;;31.70;4.55;;;;;;;38.37;18.65;99475.88;5078240;28;20042;-75
2021/05/17 15:42:13;;;;;;;34.70;4.38;;;;;;;37.39;19.04;99467.91;5095378;28;20040;-75
2021/05/17 15:44:40;;;;;;;26.25;4.13;;;;;;;36.38;19.63;99476.06;5110449;27;20134;-77
2021/05/17 15:47:07;;;;;;;15.98;3.15;;;;;;;35.85;19.70;99473.03;5111855;28;20478;-76
2021/05/17 15:49:33;;;;;;;14.55;3.92;;;;;;;35.44;19.99;99473.19;5112017;28;20074;-76
2021/05/17 15:51:59;;;;;;;14.00;3.83;;;;;;;35.08;20.95;99485.50;5128977;27;20516;-75
2021/05/17 15:54:25;;;;;;;34.15;4.18;;;;;;;34.73;21.34;99478.84;5094433;28;20047;-75
2021/05/17 15:56:52;;;;;;;12.38;3.40;;;;;;;34.32;21.18;99468.53;5094479;28;20044;-75
2021/05/17 15:59:18;;;;;;;15.93;3.30;;;;;;;34.02;20.93;99480.41;5111673;28;20052;-76
2021/05/17 16:01:44;;;;;;;30.83;4.20;;;;;;;33.63;21.85;99481.91;5094809;28;20039;-76
2021/05/17 16:04:10;;;;;;;22.05;4.38;;;;;;;33.14;22.11;99480.25;5093938;28;20043;-74
2021/05/17 16:06:36;;;;;;;19.33;3.53;;;;;;;32.86;23.10;99478.63;5093422;28;20050;-76
2021/05/17 16:09:03;;;;;;;24.08;3.90;;;;;;;32.62;22.71;99481.78;5093496;28;20047;-76
2021/05/17 16:11:34;;;;;;;24.88;4.75;;;;;;;32.33;23.64;99474.84;5082475;28;20058;-76
2021/05/17 16:14:16;;;;;;;28.75;6.18;;;;;;;32.06;24.70;99481.22;5065523;28;20052;-76
2021/05/17 16:21:50;;;;;;;38.83;7.07;;;;;;;31.19;25.24;99482.00;5080411;28;20115;-78
2021/05/17 16:24:16;;;;;;;40.83;8.65;;;;;;;30.93;25.24;99487.16;5065010;28;20054;-77
2021/05/17 16:26:47;;;;;;;32.95;8.52;;;;;;;30.70;25.68;99485.38;5080609;28;20093;-77
2021/05/17 16:29:13;;;;;;;39.72;8.80;;;;;;;30.52;25.82;99487.56;5080296;28;20092;-75
2021/05/17 16:31:39;;;;;;;53.25;9.52;;;;;;;30.37;26.01;99482.59;5099302;27;20580;-74
2021/05/17 16:34:06;;;;;;;46.55;9.65;;;;;;;30.21;26.16;99492.53;5115713;27;20043;-75
2021/05/17 16:36:33;;;;;;;38.42;8.88;;;;;;;30.05;26.47;99485.00;5133776;27;20043;-75
2021/05/17 16:39:00;;;;;;;32.45;9.27;;;;;;;29.88;27.03;99480.28;5117134;27;20039;-75
2021/05/17 16:41:26;;;;;;;21.30;8.80;;;;;;;29.76;27.18;99474.81;5100468;27;20072;-74
2021/05/17 16:43:53;;;;;;;31.17;9.02;;;;;;;29.52;27.69;99473.16;5066966;27;20138;-75
2021/05/17 16:46:19;;;;;;;27.65;8.77;;;;;;;29.45;27.72;99475.22;5134198;27;20143;-76
2021/05/17 16:49:04;;;;;;;33.92;9.18;;;;;;;29.31;28.03;99479.34;5100188;27;20060;-77
2021/05/17 16:51:34;;;;;;;34.88;9.23;;;;;;;29.14;28.13;99482.81;5104906;27;20046;-75
2021/05/17 16:54:01;;;;;;;34.80;8.60;;;;;;;29.01;28.63;99483.06;5134380;27;20176;-76
2021/05/17 16:56:27;;;;;;;29.05;8.63;;;;;;;28.91;28.81;99478.13;5117122;27;20092;-76
2021/05/17 16:58:53;;;;;;;23.73;9.00;;;;;;;28.79;28.97;99480.03;5099245;27;20051;-77
2021/05/17 17:01:19;;;;;;;37.45;9.60;;;;;;;28.66;28.97;99475.63;5133673;27;20039;-76
2021/05/17 17:03:49;;;;;;;27.48;9.32;;;;;;;28.59;29.65;99494.13;5096057;27;20039;-78
2021/05/17 17:09:36;;;;;;;37.47;9.98;;;;;;;28.21;30.43;99480.72;5127838;27;20339;-77
2021/05/17 17:12:04;;;;;;;19.48;9.27;;;;;;;28.06;30.90;99489.41;5090208;28;20049;-78
2021/05/17 17:14:31;;;;;;;27.35;9.45;;;;;;;27.93;31.14;99489.59;5024800;28;20039;-76
2021/05/17 17:17:02;;;;;;;18.98;8.20;;;;;;;27.83;31.49;99487.38;5057207;28;20126;-80
2021/05/17 17:19:41;;;;;;;21.80;9.38;;;;;;;27.66;32.01;99476.19;5059311;28;20118;-79
2021/05/17 17:22:10;;;;;;;18.33;8.65;;;;;;;27.70;31.89;99499.34;5040859;28;20040;-78
2021/05/17 17:24:41;;;;;;;18.10;8.80;;;;;;;27.52;31.99;99480.16;5024377;28;20048;-75
2021/05/17 17:27:08;;;;;;;17.50;9.52;;;;;;;27.50;32.09;99488.63;5074252;28;20048;-76
2021/05/17 17:29:35;;;;;;;14.27;8.20;;;;;;;27.51;31.92;99500.44;5054070;28;20056;-76
2021/05/17 17:32:04;;;;;;;;;;;;;;;27.45;31.69;99493.13;5037730;28;20043;-76
2021/05/17 17:34:33;;;;;;;18.50;8.30;;;;;;;27.33;32.52;99493.88;5037203;28;20009;-76
2021/05/17 17:37:03;;;;;;;32.90;9.00;;;;;;;27.29;32.74;99495.41;5017398;28;20167;-78
2021/05/17 17:39:31;;;;;;;25.85;9.23;;;;;;;27.13;32.97;99476.78;5033904;28;20076;-78
2021/05/17 17:42:00;;;;;;;19.73;8.63;;;;;;;27.18;33.07;99495.31;5017047;28;20472;-77
2021/05/17 17:44:28;;;;;;;25.20;8.73;;;;;;;27.06;33.04;99481.47;5000969;28;20064;-80
2021/05/17 17:46:55;;;;;;;;;;;;;;;27.08;32.75;99493.06;5001768;28;20052;-80
2021/05/17 17:49:25;;;;;;;16.52;7.43;;;;;;;26.99;33.04;99491.69;5049621;28;19925;-76
2021/05/17 17:51:52;;;;;;;15.55;8.02;;;;;;;26.87;33.18;99480.59;5000817;28;20102;-78
2021/05/17 17:54:24;;;;;;;15.43;7.70;;;;;;;26.83;33.21;99480.22;5016902;28;20059;-75
2021/05/17 17:56:54;;;;;;;32.25;7.95;;;;;;;26.90;33.78;99498.53;4985805;28;20074;-77
2021/05/17 17:59:21;;;;;;;17.85;8.07;;;;;;;26.78;33.97;99485.56;5017062;28;20423;-76
2021/05/17 18:01:49;;;;;;;18.10;7.50;;;;;;;26.77;33.95;99486.59;4999886;28;20055;-80
2021/05/17 18:04:17;;;;;;;16.20;8.10;;;;;;;26.73;33.84;99488.09;5035811;28;20055;-75
2021/05/17 18:07:04;;;;;;;26.80;7.90;;;;;;;26.74;34.51;99491.69;5020111;28;20142;-77
2021/05/17 18:09:47;;;;;;;23.13;7.00;;;;;;;26.63;34.46;99485.06;5058582;28;20052;-77
2021/05/17 18:12:19;;;;;;;19.60;6.10;;;;;;;26.59;34.17;99492.03;5020324;28;20101;-78
2021/05/17 18:14:46;;;;;;;14.98;6.47;;;;;;;26.52;34.14;99491.25;5004514;28;20040;-75
2021/05/17 18:17:17;;;;;;;24.65;6.70;;;;;;;26.53;34.08;99503.91;5019716;28;20045;-74
2021/05/17 18:19:44;;;;;;;11.15;5.93;;;;;;;26.45;34.10;99499.50;5029787;28;20093;-76
2021/05/17 18:22:13;;;;;;;16.02;6.57;;;;;;;26.34;34.37;99501.03;5022875;28;20052;-76
2021/05/17 18:24:39;;;;;;;;;;;;;;;26.25;34.92;99502.34;5023009;28;20047;-77
2021/05/17 18:27:07;;;;;;;24.77;6.40;;;;;;;26.04;34.92;99483.53;5039608;28;19970;-75
2021/05/17 18:29:37;;;;;;;14.68;6.18;;;;;;;26.00;34.90;99494.09;4990369;28;20098;-79
2021/05/17 18:32:13;;;;;;;20.10;6.30;;;;;;;25.95;35.30;99490.31;5006822;28;20044;-76
2021/05/17 18:34:56;;;;;;;20.52;6.22;;;;;;;25.82;35.34;99475.63;5025466;28;20044;-79
2021/05/17 18:37:29;;;;;;;;;;;;;;;25.87;35.31;99494.97;5026627;28;20349;-76
2021/05/17 18:39:55;;;;;;;17.10;6.13;;;;;;;25.72;35.79;99479.88;5055676;28;19920;-78
2021/05/17 18:42:23;;;;;;;15.50;6.35;;;;;;;25.79;35.34;99497.16;5022565;28;20040;-77
2021/05/17 18:47:37;;;;;;;18.55;6.07;;;;;;;25.61;35.72;99485.00;5025049;28;20048;-77
2021/05/17 18:50:05;;;;;;;13.15;6.13;;;;;;;25.58;35.70;99490.06;5007027;28;20041;-72
2021/05/17 18:52:31;;;;;;;19.38;6.18;;;;;;;25.49;35.81;99485.88;5006082;28;20044;-77
2021/05/17 18:54:58;;;;;;;19.80;6.43;;;;;;;25.48;35.85;99495.13;5054656;28;20570;-75
2021/05/17 18:57:24;;;;;;;21.40;6.18;;;;;;;25.41;35.86;99500.63;5022298;28;20056;-75
2021/05/17 18:59:53;;;;;;;18.27;6.72;;;;;;;25.30;35.77;99487.59;5005869;28;20048;-78
2021/05/17 19:02:21;;;;;;;13.80;6.18;;;;;;;25.32;35.38;99486.34;5022418;28;20066;-77
2021/05/17 19:04:49;;;;;;;18.40;5.72;;;;;;;25.26;35.07;99486.34;5022440;28;20131;-74
2021/05/17 19:07:16;;;;;;;13.70;5.95;;;;;;;25.20;35.11;99482.59;5053218;28;20067;-76
2021/05/17 19:09:43;;;;;;;21.58;6.20;;;;;;;25.19;35.21;99467.22;4986748;28;20067;-75
2021/05/17 19:12:11;;;;;;;13.88;5.75;;;;;;;25.19;35.22;99480.91;4986752;28;20055;-78
2021/05/17 19:14:40;;;;;;;28.88;6.10;;;;;;;25.15;35.31;99474.19;5003989;28;20048;-77
2021/05/17 19:17:10;;;;;;;11.32;5.20;;;;;;;25.11;35.19;99472.94;4986184;28;20041;-75
2021/05/17 19:19:37;;;;;;;17.63;5.97;;;;;;;25.07;35.36;99468.91;5003423;28;20053;-76
2021/05/17 19:22:03;;;;;;;14.10;5.85;;;;;;;25.01;35.73;99469.75;4970263;28;20044;-75
2021/05/17 19:24:29;;;;;;;15.23;5.85;;;;;;;24.95;35.31;99475.03;4987715;28;20041;-75
2021/05/17 19:26:56;;;;;;;15.82;6.20;;;;;;;24.97;35.72;99469.34;4973787;28;20392;-75
2021/05/17 19:29:26;;;;;;;14.60;5.75;;;;;;;24.91;36.00;99462.00;5003120;28;20071;-77
2021/05/17 19:31:53;;;;;;;19.52;6.63;;;;;;;24.82;36.20;99466.81;5003614;28;20392;-76
2021/05/17 19:34:20;;;;;;;18.08;6.40;;;;;;;24.77;36.32;99463.91;4987140;28;20497;-74
2021/05/17 19:36:46;;;;;;;19.98;6.60;;;;;;;24.67;36.51;99463.47;5000085;28;20045;-75
2021/05/17 19:39:12;;;;;;;26.70;6.50;;;;;;;24.61;36.95;99469.81;4952299;28;20462;-76
2021/05/17 19:41:38;;;;;;;18.58;6.40;;;;;;;24.54;36.89;99461.59;5000273;28;20069;-79
2021/05/17 19:44:04;;;;;;;15.63;6.47;;;;;;;24.47;36.91;99461.59;5002944;28;20076;-75
2021/05/17 19:46:30;;;;;;;15.82;6.05;;;;;;;24.45;37.10;99465.63;5020328;28;20032;-76
2021/05/17 19:49:10;;;;;;;17.98;7.10;;;;;;;24.43;37.23;99460.34;5052850;28;20519;-77
2021/05/17 19:51:37;;;;;;;9.73;5.72;;;;;;;24.32;36.74;99458.19;5007109;28;20404;-76
2021/05/17 19:54:04;;;;;;;21.50;5.80;;;;;;;24.24;36.40;99444.75;5035338;28;20060;-77
2021/05/17 19:56:30;;;;;;;15.05;6.28;;;;;;;24.20;36.44;99462.59;5019769;28;20044;-77
2021/05/17 19:58:59;;;;;;;19.42;6.18;;;;;;;24.13;36.88;99454.41;5053725;28;20032;-77
2021/05/17 20:01:25;;;;;;;11.05;5.38;;;;;;;24.14;36.74;99457.97;4987830;28;20041;-75
2021/05/17 20:03:51;;;;;;;19.85;5.85;;;;;;;24.06;36.93;99447.25;4986111;28;20143;-76
2021/05/17 20:06:17;;;;;;;18.75;6.55;;;;;;;24.07;36.82;99457.09;5019599;28;20041;-75
2021/05/17 20:08:44;;;;;;;23.20;6.40;;;;;;;23.98;36.87;99457.31;4972604;28;20436;-74
2021/05/17 20:11:10;;;;;;;18.02;5.60;;;;;;;23.93;36.96;99451.63;4967565;28;20041;-75
2021/05/17 20:13:36;;;;;;;17.42;6.10;;;;;;;23.88;37.21;99450.56;4999655;28;20049;-75
2021/05/17 20:16:02;;;;;;;21.05;6.43;;;;;;;23.83;37.05;99464.81;4967495;28;20037;-75
2021/05/17 20:18:28;;;;;;;17.85;5.70;;;;;;;23.74;36.92;99460.63;4983976;28;20094;-74
2021/05/17 20:20:54;;;;;;;15.15;5.72;;;;;;;23.66;37.02;99469.81;4983713;28;20063;-74
2021/05/17 20:23:20;;;;;;;16.67;5.68;;;;;;;23.55;36.67;99462.19;4999547;28;20041;-75
2021/05/17 20:25:46;;;;;;;15.68;5.13;;;;;;;23.47;36.85;99460.50;4999471;28;20052;-74
2021/05/17 20:28:12;;;;;;;10.65;5.07;;;;;;;23.36;36.87;99461.06;4982995;28;20037;-73
2021/05/17 20:30:40;;;;;;;12.25;5.82;;;;;;;23.34;36.86;99456.84;4983621;28;20397;-74
2021/05/17 20:35:52;;;;;;;14.88;5.00;;;;;;;23.17;36.74;99459.91;4987947;28;20048;-74
2021/05/17 20:38:26;;;;;;;13.65;5.68;;;;;;;23.14;36.77;99464.94;4967096;28;20048;-74
2021/05/17 20:41:00;;;;;;;18.15;6.05;;;;;;;23.02;37.10;99446.41;4968348;28;20037;-73
2021/05/17 20:43:29;;;;;;;13.73;4.97;;;;;;;23.01;37.01;99461.06;4983770;28;20071;-73
2021/05/17 20:45:57;;;;;;;;;;;;;;;22.95;36.95;99455.59;4984209;28;20051;-73
2021/05/17 20:48:24;;;;;;;17.95;5.15;;;;;;;22.87;37.18;99456.56;5031787;28;19933;-74
2021/05/17 20:50:50;;;;;;;20.65;5.10;;;;;;;22.71;37.21;99435.03;5015588;28;20076;-74
2021/05/17 20:53:16;;;;;;;14.05;4.88;;;;;;;22.72;37.10;99461.28;4999567;28;20080;-73
2021/05/17 20:55:42;;;;;;;7.28;4.60;;;;;;;22.64;37.02;99456.81;4982964;28;20048;-74
2021/05/17 20:58:08;;;;;;;14.48;4.80;;;;;;;22.58;36.98;99464.94;4999206;28;20045;-75
2021/05/17 21:00:36;;;;;;;15.65;5.70;;;;;;;22.51;37.22;99457.53;4966873;28;20048;-75
2021/05/17 21:03:06;;;;;;;14.35;4.85;;;;;;;22.48;37.16;99463.38;4999691;28;20053;-75
2021/05/17 21:05:32;;;;;;;12.10;5.30;;;;;;;22.42;37.86;99453.28;4967099;28;20041;-75
2021/05/17 21:07:58;;;;;;;14.13;5.38;;;;;;;22.37;38.07;99458.47;4993516;28;20492;-74
2021/05/17 21:10:25;;;;;;;8.57;4.95;;;;;;;22.28;38.32;99459.66;4986485;28;20053;-74
2021/05/17 21:12:51;;;;;;;12.23;5.15;;;;;;;22.24;38.44;99461.06;5018924;28;20064;-76
2021/05/17 21:15:17;;;;;;;18.35;5.50;;;;;;;22.17;38.40;99455.56;5035135;28;20128;-75
2021/05/17 21:17:43;;;;;;;17.23;5.20;;;;;;;22.12;38.73;99458.00;5002312;28;20068;-74
2021/05/17 21:20:11;;;;;;;16.65;5.30;;;;;;;22.08;38.78;99454.00;4986668;28;20045;-75
2021/05/17 21:22:37;;;;;;;15.35;5.40;;;;;;;22.05;38.75;99459.81;5035128;28;20056;-75
2021/05/17 21:25:04;;;;;;;19.58;5.00;;;;;;;22.00;38.71;99465.84;5034946;28;20041;-76
2021/05/17 21:27:32;;;;;;;21.33;5.30;;;;;;;21.93;38.76;99454.03;5018597;28;20455;-75
2021/05/17 21:29:58;;;;;;;19.58;5.15;;;;;;;21.92;38.92;99459.66;5019181;28;20416;-75
2021/05/17 21:32:27;;;;;;;16.60;5.00;;;;;;;21.90;38.57;99461.75;4986028;28;20045;-75
2021/05/17 21:34:53;;;;;;;14.98;4.72;;;;;;;21.86;38.92;99461.28;5035387;28;20102;-75
2021/05/17 21:37:21;;;;;;;18.25;5.45;;;;;;;21.79;38.91;99454.94;5002053;28;20033;-75
2021/05/17 21:39:47;;;;;;;13.00;5.18;;;;;;;21.74;39.21;99451.94;5018843;28;20130;-75
2021/05/17 21:42:14;;;;;;;20.30;5.63;;;;;;;21.72;39.48;99459.47;5018346;28;20091;-75
2021/05/17 21:44:42;;;;;;;16.33;5.43;;;;;;;21.53;39.73;99452.75;5018923;28;20045;-75
2021/05/17 21:47:08;;;;;;;13.57;6.13;;;;;;;21.56;39.92;99461.38;5018351;28;20044;-75
2021/05/17 21:49:34;;;;;;;9.90;5.50;;;;;;;21.44;39.88;99462.03;5002501;28;20032;-74
2021/05/17 21:52:00;;;;;;;13.85;5.25;;;;;;;21.37;40.12;99458.41;5002338;28;20476;-74
2021/05/17 21:54:26;;;;;;;15.52;5.40;;;;;;;21.28;39.94;99446.75;5035442;28;20124;-75
2021/05/17 21:56:52;;;;;;;18.75;5.45;;;;;;;21.25;40.12;99452.56;5005904;28;20044;-75
2021/05/17 21:59:18;;;;;;;14.60;5.20;;;;;;;21.21;40.17;99451.25;5021938;28;20381;-75
2021/05/17 22:01:44;;;;;;;17.00;5.13;;;;;;;21.18;40.53;99457.91;5005539;28;20036;-74
2021/05/17 22:04:11;;;;;;;17.17;5.07;;;;;;;21.19;40.36;99458.75;5006214;28;20052;-74
2021/05/17 22:06:45;;;;;;;13.55;5.07;;;;;;;21.10;40.25;99455.31;5022078;28;20045;-76
2021/05/17 22:11:57;;;;;;;15.00;5.30;;;;;;;21.01;40.52;99450.97;4990770;28;20045;-75
2021/05/17 22:14:25;;;;;;;14.77;5.00;;;;;;;20.95;40.40;99447.16;4986211;28;20103;-76
2021/05/17 22:16:51;;;;;;;15.50;5.32;;;;;;;20.85;40.39;99446.56;4985966;28;20056;-77
2021/05/17 22:19:18;;;;;;;8.95;4.60;;;;;;;20.86;40.38;99448.25;4969602;28;20041;-76
2021/05/17 22:21:45;;;;;;;18.65;5.28;;;;;;;20.82;40.59;99453.22;4986006;28;20053;-75
2021/05/17 22:24:12;;;;;;;25.85;5.13;;;;;;;20.77;40.87;99438.53;4970200;28;20136;-76
2021/05/17 22:26:39;;;;;;;13.25;5.63;;;;;;;20.79;41.18;99447.31;4953682;28;20603;-76
2021/05/17 22:29:05;;;;;;;8.13;5.40;;;;;;;20.72;41.07;99447.19;4969568;28;20045;-73
2021/05/17 22:31:32;;;;;;;16.40;5.82;;;;;;;20.69;41.39;99446.75;5001777;28;20041;-74
2021/05/17 22:34:09;;;;;;;23.10;6.63;;;;;;;20.59;41.30;99447.84;4969592;28;20045;-74
2021/05/17 22:36:36;;;;;;;15.18;5.50;;;;;;;20.55;41.96;99446.53;4971136;28;20055;-75
2021/05/17 22:39:04;;;;;;;15.90;5.68;;;;;;;20.50;41.87;99443.53;5001548;28;20052;-75
2021/05/17 22:41:30;;;;;;;14.80;5.45;;;;;;;20.46;41.95;99450.34;4969182;28;20045;-74
2021/05/17 22:43:56;;;;;;;15.88;5.45;;;;;;;20.36;41.70;99430.75;4985694;28;20049;-74
2021/05/17 22:46:22;;;;;;;11.68;5.25;;;;;;;20.36;42.02;99441.59;4984966;28;20128;-74
2021/05/17 22:48:56;;;;;;;9.25;4.70;;;;;;;20.29;42.04;99441.47;4968921;28;20056;-74
2021/05/17 22:51:25;;;;;;;12.60;5.25;;;;;;;20.24;42.02;99440.34;4971208;28;20136;-74
2021/05/17 22:53:51;;;;;;;9.30;5.22;;;;;;;20.22;42.07;99437.81;4985811;28;20041;-73
2021/05/17 22:56:19;;;;;;;6.72;4.80;;;;;;;20.13;42.04;99426.19;4969237;28;20053;-74
2021/05/17 22:58:45;;;;;;;16.13;5.22;;;;;;;20.14;41.79;99435.16;4985555;28;20128;-75
2021/05/17 23:01:11;;;;;;;10.27;5.10;;;;;;;20.09;42.14;99435.72;4968913;28;20061;-74
2021/05/17 23:03:37;;;;;;;12.13;4.65;;;;;;;19.99;42.01;99428.84;4968985;28;20049;-73
2021/05/17 23:06:03;;;;;;;10.55;4.70;;;;;;;19.94;42.19;99429.38;4984733;28;20519;-73
2021/05/17 23:08:29;;;;;;;14.65;4.93;;;;;;;19.96;42.24;99434.63;4984660;28;20394;-74
2021/05/17 23:10:56;;;;;;;12.65;4.88;;;;;;;19.91;42.31;99429.75;4968826;28;20049;-74
2021/05/17 23:13:22;;;;;;;13.00;5.07;;;;;;;19.86;42.27;99434.88;4969234;28;20037;-74
2021/05/17 23:15:49;;;;;;;9.77;4.70;;;;;;;19.79;42.27;99431.19;4952819;28;20047;-73
2021/05/17 23:18:15;;;;;;;11.65;5.28;;;;;;;19.75;42.50;99432.59;4984597;28;20054;-74
2021/05/17 23:23:23;;;;;;;12.85;4.85;;;;;;;19.67;42.58;99429.91;4987235;28;20049;-73
2021/05/17 23:28:36;;;;;;;12.32;5.00;;;;;;;19.59;42.57;99434.31;4973707;28;20068;-74
2021/05/17 23:31:02;;;;;;;14.88;5.30;;;;;;;19.57;42.95;99432.81;4968364;28;20076;-74
2021/05/17 23:33:28;;;;;;;20.35;5.47;;;;;;;19.53;43.13;99435.03;4968297;28;20050;-73
2021/05/17 23:35:54;;;;;;;17.52;5.07;;;;;;;19.48;42.92;99431.16;4968619;28;20045;-73
2021/05/17 23:38:21;;;;;;;15.13;4.82;;;;;;;19.38;43.28;99431.41;4984239;28;20092;-74
2021/05/17 23:40:50;;;;;;;12.65;5.22;;;;;;;19.37;43.36;99444.13;4952223;28;20037;-73
2021/05/17 23:43:16;;;;;;;17.73;5.57;;;;;;;19.32;43.61;99440.22;4984264;28;20045;-73
2021/05/17 23:45:42;;;;;;;16.90;6.35;;;;;;;19.23;43.69;99433.16;4968053;28;20076;-74
2021/05/17 23:48:08;;;;;;;10.52;4.97;;;;;;;19.21;44.14;99437.91;4984338;28;20041;-73
2021/05/17 23:50:37;;;;;;;10.23;4.80;;;;;;;19.17;44.09;99435.53;4968146;28;20048;-74
2021/05/17 23:53:04;;;;;;;13.75;5.32;;;;;;;19.11;43.91;99438.97;4967756;28;20068;-74
2021/05/17 23:55:30;;;;;;;15.82;5.55;;;;;;;19.08;44.11;99439.31;4984001;28;20094;-74
2021/05/17 23:57:56;;;;;;;11.60;4.95;;;;;;;19.03;44.13;99428.16;4983822;28;20043;-74
